Knossos Palace — SYQO — position and weather

sailwx.info

Track history (hours):
 
Tides and Currents Weather Stations Pressure Air Temp Water Temp Dewpoint Dewpoint Depression Visibility Wind Speed Wind Dir Waves Ship Positions

Knossos Palace

Last reported at 2017-Feb-24 20:21 UTC. Time now 2017-Feb-24 21:40 UTC.
Position N 37°36' E 023°45'.

Length 214 m; beam 26.4 m; draft 7.3 m.

Type: Ship. MMSI: 237641000.

Date/timePositionNaut miles runAvg speedWind from/ knotsBaromVisibWave heightAir tempDewpointWater temp
2017-Feb-24 20:21N 37°36' E 023°45'1518.8
2017-Feb-24 19:33N 37°49' E 023°37'7 7.2
2017-Feb-24 18:33N 37°57' E 023°38'0 0.0
2017-Feb-24 17:31N 37°57' E 023°38'0 0.0
2017-Feb-24 16:31N 37°57' E 023°38'0 0.0
2017-Feb-24 15:31N 37°57' E 023°38'0 0.0
2017-Feb-24 14:31N 37°57' E 023°38'0 0.0
2017-Feb-24 13:31N 37°57' E 023°38'0 0.0
2017-Feb-24 12:31N 37°57' E 023°38'0 0.0
2017-Feb-24 11:31N 37°57' E 023°38'0 0.0
2017-Feb-24 10:33N 37°57' E 023°38'0 0.0
2017-Feb-24 09:32N 37°57' E 023°38'0 0.0
2017-Feb-24 08:32N 37°57' E 023°38'0 0.0
2017-Feb-24 07:32N 37°57' E 023°38'0 0.0
2017-Feb-24 05:32N 37°57' E 023°38'0 0.2
2017-Feb-24 04:33N 37°56' E 023°38'1817.8
2017-Feb-24 03:33N 37°40' E 023°46'109 4.3
2017-Feb-23 02:00N 36°00' E 024°42'10619.0 250 / 201019.010.8 15.013.414.0
2017-Feb-22 20:25N 37°36' E 023°45'1618.5
2017-Feb-22 19:33N 37°50' E 023°37'6 6.5
2017-Feb-22 18:33N 37°57' E 023°38'0 0.0
2017-Feb-22 17:33N 37°57' E 023°38'0 0.0
2017-Feb-22 16:33N 37°57' E 023°38'0 0.0
2017-Feb-22 15:33N 37°57' E 023°38'0 0.0
2017-Feb-22 14:33N 37°57' E 023°38'0 0.0
2017-Feb-22 13:33N 37°57' E 023°38'0 0.0
2017-Feb-22 12:33N 37°57' E 023°38'0 0.0
2017-Feb-22 11:34N 37°57' E 023°38'0 0.0
2017-Feb-22 10:33N 37°57' E 023°38'0 0.0
2017-Feb-22 09:33N 37°57' E 023°38'0 0.0
2017-Feb-22 08:33N 37°57' E 023°38'0 0.0
2017-Feb-22 07:33N 37°57' E 023°38'0 0.0
2017-Feb-22 06:32N 37°57' E 023°38'0 0.0
2017-Feb-22 05:32N 37°57' E 023°38'1 0.8
2017-Feb-22 04:33N 37°56' E 023°37'1716.9
2017-Feb-22 03:33N 37°41' E 023°47'110 4.3
2017-Feb-21 02:00N 36°00' E 024°42'10919.0 290 / 101018.210.8 15.013.416.0
2017-Feb-20 20:16N 37°38' E 023°44'1318.9
2017-Feb-20 19:33N 37°51' E 023°37'6 6.0
2017-Feb-20 18:33N 37°57' E 023°38'0 0.0
2017-Feb-20 17:32N 37°57' E 023°38'0 0.0
2017-Feb-20 16:32N 37°57' E 023°38'0 0.0
2017-Feb-20 15:32N 37°57' E 023°38'0 0.0
2017-Feb-20 14:32N 37°57' E 023°38'0 0.0
2017-Feb-20 13:32N 37°57' E 023°38'0 0.0
2017-Feb-20 12:32N 37°57' E 023°38'0 0.0
2017-Feb-20 11:32N 37°57' E 023°38'0 0.0
2017-Feb-20 10:32N 37°57' E 023°38'0 0.0
2017-Feb-20 09:33N 37°57' E 023°38'0 0.0
2017-Feb-20 08:31N 37°57' E 023°38'0 0.0
2017-Feb-20 07:31N 37°57' E 023°38'0 0.0
2017-Feb-20 06:31N 37°57' E 023°38'0 0.0
2017-Feb-20 05:31N 37°57' E 023°38'0 0.0
2017-Feb-20 04:34N 37°57' E 023°38'1413.7
2017-Feb-20 03:34N 37°44' E 023°44'7 0.2
2017-Feb-18 20:25N 37°36' E 023°44'1517.7
2017-Feb-18 19:34N 37°51' E 023°37'6 6.1
2017-Feb-18 18:33N 37°57' E 023°38'0 0.0
2017-Feb-18 17:31N 37°57' E 023°38'0 0.0
2017-Feb-18 16:31N 37°57' E 023°38'0 0.0
2017-Feb-18 15:31N 37°57' E 023°38'0 0.0
2017-Feb-18 14:31N 37°57' E 023°38'0 0.0
2017-Feb-18 13:31N 37°57' E 023°38'0 0.0
2017-Feb-18 12:31N 37°57' E 023°38'0 0.0
2017-Feb-18 11:31N 37°57' E 023°38'0 0.0
2017-Feb-18 10:31N 37°57' E 023°38'0 0.0
2017-Feb-18 09:31N 37°57' E 023°38'0 0.0
2017-Feb-18 08:31N 37°57' E 023°38'0 0.0
2017-Feb-18 07:31N 37°57' E 023°38'0 0.0
2017-Feb-18 06:31N 37°57' E 023°38'0 0.0
2017-Feb-18 05:31N 37°57' E 023°38'0 0.1
2017-Feb-18 04:33N 37°57' E 023°38'1515.1
2017-Feb-18 03:34N 37°42' E 023°45'3320.9
2017-Feb-18 02:00N 37°12' E 024°00'27 0.9 270 / 81023.010.8 14.512.815.0
2017-Feb-16 20:23N 37°36' E 023°45'1619.6
2017-Feb-16 19:34N 37°51' E 023°37'6 5.9
2017-Feb-16 18:31N 37°57' E 023°38'0 0.0
2017-Feb-16 17:31N 37°57' E 023°38'0 0.0
2017-Feb-16 16:31N 37°57' E 023°38'0 0.0
2017-Feb-16 15:31N 37°57' E 023°38'0 0.0
2017-Feb-16 14:31N 37°57' E 023°38'0 0.0
2017-Feb-16 13:31N 37°57' E 023°38'0 0.0
2017-Feb-16 12:31N 37°57' E 023°38'0 0.0
2017-Feb-16 11:31N 37°57' E 023°38'0 0.0
2017-Feb-16 10:31N 37°57' E 023°38'0 0.0
2017-Feb-16 09:31N 37°57' E 023°38'0 0.0
2017-Feb-16 08:31N 37°57' E 023°38'0 0.0
2017-Feb-16 07:31N 37°57' E 023°38'0 0.0
2017-Feb-16 06:31N 37°57' E 023°38'0 0.0
2017-Feb-16 05:31N 37°57' E 023°38'0 0.0
2017-Feb-16 04:31N 37°57' E 023°38'1212.1
2017-Feb-16 03:33N 37°46' E 023°43'11620.8
2017-Feb-15 22:00N 36°00' E 024°42'0 0.0 020 / 221026.510.8 13.510.715.0
2017-Feb-15 02:00N 36°00' E 024°42'10519.0 020 / 261028.510.8 13.510.914.0
2017-Feb-14 20:29N 37°34' E 023°45'  
Track history (hours):
 
Tides and Currents Weather Stations Pressure Air Temp Water Temp Dewpoint Dewpoint Depression Visibility Wind Speed Wind Dir Waves Ship Positions

Knossos Palace

Last reported at 2017-Feb-24 20:21 UTC. Time now 2017-Feb-24 21:40 UTC.
Position N 37°36' E 023°45'.

Length 214 m; beam 26.4 m; draft 7.3 m.

Type: Ship. MMSI: 237641000.

Date/timePositionNaut miles runAvg speedWind from/ knotsBaromVisibWave heightAir tempDewpointWater temp
2017-Feb-24 20:21N 37°36' E 023°45'1518.8
2017-Feb-24 19:33N 37°49' E 023°37'7 7.2
2017-Feb-24 18:33N 37°57' E 023°38'0 0.0
2017-Feb-24 17:31N 37°57' E 023°38'0 0.0
2017-Feb-24 16:31N 37°57' E 023°38'0 0.0
2017-Feb-24 15:31N 37°57' E 023°38'0 0.0
2017-Feb-24 14:31N 37°57' E 023°38'0 0.0
2017-Feb-24 13:31N 37°57' E 023°38'0 0.0
2017-Feb-24 12:31N 37°57' E 023°38'0 0.0
2017-Feb-24 11:31N 37°57' E 023°38'0 0.0
2017-Feb-24 10:33N 37°57' E 023°38'0 0.0
2017-Feb-24 09:32N 37°57' E 023°38'0 0.0
2017-Feb-24 08:32N 37°57' E 023°38'0 0.0
2017-Feb-24 07:32N 37°57' E 023°38'0 0.0
2017-Feb-24 05:32N 37°57' E 023°38'0 0.2
2017-Feb-24 04:33N 37°56' E 023°38'1817.8
2017-Feb-24 03:33N 37°40' E 023°46'109 4.3
2017-Feb-23 02:00N 36°00' E 024°42'10619.0 250 / 201019.010.8 15.013.414.0
2017-Feb-22 20:25N 37°36' E 023°45'1618.5
2017-Feb-22 19:33N 37°50' E 023°37'6 6.5
2017-Feb-22 18:33N 37°57' E 023°38'0 0.0
2017-Feb-22 17:33N 37°57' E 023°38'0 0.0
2017-Feb-22 16:33N 37°57' E 023°38'0 0.0
2017-Feb-22 15:33N 37°57' E 023°38'0 0.0
2017-Feb-22 14:33N 37°57' E 023°38'0 0.0
2017-Feb-22 13:33N 37°57' E 023°38'0 0.0
2017-Feb-22 12:33N 37°57' E 023°38'0 0.0
2017-Feb-22 11:34N 37°57' E 023°38'0 0.0
2017-Feb-22 10:33N 37°57' E 023°38'0 0.0
2017-Feb-22 09:33N 37°57' E 023°38'0 0.0
2017-Feb-22 08:33N 37°57' E 023°38'0 0.0
2017-Feb-22 07:33N 37°57' E 023°38'0 0.0
2017-Feb-22 06:32N 37°57' E 023°38'0 0.0
2017-Feb-22 05:32N 37°57' E 023°38'1 0.8
2017-Feb-22 04:33N 37°56' E 023°37'1716.9
2017-Feb-22 03:33N 37°41' E 023°47'110 4.3
2017-Feb-21 02:00N 36°00' E 024°42'10919.0 290 / 101018.210.8 15.013.416.0
2017-Feb-20 20:16N 37°38' E 023°44'1318.9
2017-Feb-20 19:33N 37°51' E 023°37'6 6.0
2017-Feb-20 18:33N 37°57' E 023°38'0 0.0
2017-Feb-20 17:32N 37°57' E 023°38'0 0.0
2017-Feb-20 16:32N 37°57' E 023°38'0 0.0
2017-Feb-20 15:32N 37°57' E 023°38'0 0.0
2017-Feb-20 14:32N 37°57' E 023°38'0 0.0
2017-Feb-20 13:32N 37°57' E 023°38'0 0.0
2017-Feb-20 12:32N 37°57' E 023°38'0 0.0
2017-Feb-20 11:32N 37°57' E 023°38'0 0.0
2017-Feb-20 10:32N 37°57' E 023°38'0 0.0
2017-Feb-20 09:33N 37°57' E 023°38'0 0.0
2017-Feb-20 08:31N 37°57' E 023°38'0 0.0
2017-Feb-20 07:31N 37°57' E 023°38'0 0.0
2017-Feb-20 06:31N 37°57' E 023°38'0 0.0
2017-Feb-20 05:31N 37°57' E 023°38'0 0.0
2017-Feb-20 04:34N 37°57' E 023°38'1413.7
2017-Feb-20 03:34N 37°44' E 023°44'7 0.2
2017-Feb-18 20:25N 37°36' E 023°44'1517.7
2017-Feb-18 19:34N 37°51' E 023°37'6 6.1
2017-Feb-18 18:33N 37°57' E 023°38'0 0.0
2017-Feb-18 17:31N 37°57' E 023°38'0 0.0
2017-Feb-18 16:31N 37°57' E 023°38'0 0.0
2017-Feb-18 15:31N 37°57' E 023°38'0 0.0
2017-Feb-18 14:31N 37°57' E 023°38'0 0.0
2017-Feb-18 13:31N 37°57' E 023°38'0 0.0
2017-Feb-18 12:31N 37°57' E 023°38'0 0.0
2017-Feb-18 11:31N 37°57' E 023°38'0 0.0
2017-Feb-18 10:31N 37°57' E 023°38'0 0.0
2017-Feb-18 09:31N 37°57' E 023°38'0 0.0
2017-Feb-18 08:31N 37°57' E 023°38'0 0.0
2017-Feb-18 07:31N 37°57' E 023°38'0 0.0
2017-Feb-18 06:31N 37°57' E 023°38'0 0.0
2017-Feb-18 05:31N 37°57' E 023°38'0 0.1
2017-Feb-18 04:33N 37°57' E 023°38'1515.1
2017-Feb-18 03:34N 37°42' E 023°45'3320.9
2017-Feb-18 02:00N 37°12' E 024°00'27 0.9 270 / 81023.010.8 14.512.815.0
2017-Feb-16 20:23N 37°36' E 023°45'1619.6
2017-Feb-16 19:34N 37°51' E 023°37'6 5.9
2017-Feb-16 18:31N 37°57' E 023°38'0 0.0
2017-Feb-16 17:31N 37°57' E 023°38'0 0.0
2017-Feb-16 16:31N 37°57' E 023°38'0 0.0
2017-Feb-16 15:31N 37°57' E 023°38'0 0.0
2017-Feb-16 14:31N 37°57' E 023°38'0 0.0
2017-Feb-16 13:31N 37°57' E 023°38'0 0.0
2017-Feb-16 12:31N 37°57' E 023°38'0 0.0
2017-Feb-16 11:31N 37°57' E 023°38'0 0.0
2017-Feb-16 10:31N 37°57' E 023°38'0 0.0
2017-Feb-16 09:31N 37°57' E 023°38'0 0.0
2017-Feb-16 08:31N 37°57' E 023°38'0 0.0
2017-Feb-16 07:31N 37°57' E 023°38'0 0.0
2017-Feb-16 06:31N 37°57' E 023°38'0 0.0
2017-Feb-16 05:31N 37°57' E 023°38'0 0.0
2017-Feb-16 04:31N 37°57' E 023°38'1212.1
2017-Feb-16 03:33N 37°46' E 023°43'11620.8
2017-Feb-15 22:00N 36°00' E 024°42'0 0.0 020 / 221026.510.8 13.510.715.0
2017-Feb-15 02:00N 36°00' E 024°42'10519.0 020 / 261028.510.8 13.510.914.0
2017-Feb-14 20:29N 37°34' E 023°45'  

Dump ship's entire track history